»·PEaware :: N505Z KSMX-KBFL

N505Z :: KSMX-KBFL

FLIGHT INFORMATION

Flight Status: Arrived
Operator: Privately registered:
United States
More flights under this callsign
Pilot: Glen R. (20150)
Aircraft: Unknown
(M20K)
More flights by this aircraft type
Origin: KSMX Santa Maria Pub/Capt Hancock
United States
Destination: KBFL Meadows
United States
More flights between these airports :: More routes between these airports
Route: +
File this flight plan on PilotEdge
Remarks:
Altitude:
(Current/Filed)
0ft
Speed:
(Current/Filed)
0kts
Departed: 19-Sep-18 04:40 PM
Arrived: 19-Sep-18 05:35 PM
Distance/Time
Traveled:
76nm/0:55
Distance/Time
To Go:
Arrived

Flight Plot

Page will automatically refresh every two minutes.


Map Options




Map Legend


Flown Route
Filed Route
Departure Airport
Arrival Airport
Navaid (VOR, NDB)
Fix

Horizontal Profiles

Position Reports

Time Latitude Longitude Heading Altitude Ground
Speed
19-Sep-18 16:41 34.990912 -120.231215 67 7644ft 188kts
19-Sep-18 16:42 34.994460 -120.220991 67 7589ft 195kts
19-Sep-18 16:43 34.998071 -120.210405 67 7529ft 199kts
19-Sep-18 16:44 35.001728 -120.199082 68 7646ft 195kts
19-Sep-18 16:45 35.005302 -120.187751 68 7705ft 194kts
19-Sep-18 16:46 35.008970 -120.176128 68 7532ft 206kts
19-Sep-18 16:47 35.014841 -120.158672 67 7453ft 207kts
19-Sep-18 16:48 35.028162 -120.122341 64 7512ft 204kts
19-Sep-18 16:49 35.039722 -120.091680 65 7561ft 202kts
19-Sep-18 16:50 35.043873 -120.080945 63 7537ft 204kts
19-Sep-18 16:51 35.048159 -120.070387 63 7448ft 208kts
19-Sep-18 16:52 35.054451 -120.054544 64 7800ft 189kts
19-Sep-18 16:53 35.060924 -120.037890 64 7999ft 186kts
19-Sep-18 16:54 35.064830 -120.028047 63 7875ft 197kts
19-Sep-18 16:55 35.069036 -120.017418 64 7657ft 209kts
19-Sep-18 16:56 35.077797 -119.993578 66 7672ft 205kts
19-Sep-18 16:57 35.088787 -119.957485 70 7540ft 210kts
19-Sep-18 16:58 35.101247 -119.923539 64 7517ft 205kts
19-Sep-18 16:59 35.112309 -119.894564 65 7445ft 209kts
19-Sep-18 17:00 35.123193 -119.865420 64 7652ft 196kts
19-Sep-18 17:01 35.134117 -119.837472 65 7637ft 199kts
19-Sep-18 17:02 35.144326 -119.809634 67 7737ft 199kts
19-Sep-18 17:03 35.154935 -119.781457 62 7597ft 207kts
19-Sep-18 17:04 35.166591 -119.753294 63 7651ft 203kts
19-Sep-18 17:05 35.177969 -119.725052 63 7627ft 204kts
19-Sep-18 17:06 35.189632 -119.697587 61 7611ft 205kts
19-Sep-18 17:07 35.201224 -119.670027 65 7572ft 205kts
19-Sep-18 17:08 35.210779 -119.641579 68 7578ft 204kts
19-Sep-18 17:09 35.220854 -119.611826 64 7052ft 223kts
19-Sep-18 17:10 35.236820 -119.575091 59 5944ft 240kts
19-Sep-18 17:11 35.254665 -119.538205 59 4963ft 222kts
19-Sep-18 17:12 35.269637 -119.503979 62 4206ft 208kts
19-Sep-18 17:13 35.283505 -119.469394 63 3500ft 197kts
19-Sep-18 17:14 35.296018 -119.437858 64 3263ft 193kts
19-Sep-18 17:15 35.306707 -119.410265 65 3173ft 196kts
19-Sep-18 17:16 35.318471 -119.376417 67 3033ft 200kts
19-Sep-18 17:17 35.329435 -119.344068 63 3080ft 195kts
19-Sep-18 17:18 35.343161 -119.309702 65 3050ft 196kts
19-Sep-18 17:19 35.356417 -119.274662 64 2787ft 203kts
19-Sep-18 17:20 35.369343 -119.240084 64 2510ft 205kts
19-Sep-18 17:21 35.382827 -119.207550 60 2323ft 203kts
19-Sep-18 17:22 35.396797 -119.181214 52 2144ft 203kts
19-Sep-18 17:23 35.414333 -119.156499 48 2087ft 197kts
19-Sep-18 17:24 35.428659 -119.136036 48 2148ft 170kts
19-Sep-18 17:25 35.438998 -119.119843 59 2195ft 127kts
19-Sep-18 17:26 35.439647 -119.105865 116 1916ft 111kts
19-Sep-18 17:27 35.434217 -119.093044 118 1591ft 131kts
19-Sep-18 17:28 35.427694 -119.080441 129 1608ft 114kts
19-Sep-18 17:29 35.419326 -119.068715 133 1559ft 110kts
19-Sep-18 17:30 35.409639 -119.056750 134 1678ft 117kts
19-Sep-18 17:31 35.400658 -119.044178 120 1579ft 112kts
19-Sep-18 17:32 35.402929 -119.028631 50 1110ft 113kts
19-Sep-18 17:33 35.414086 -119.029567 300 1133ft 95kts
19-Sep-18 17:34 35.420605 -119.040464 315 869ft 90kts
19-Sep-18 17:35 35.427684 -119.048873 314 622ft 86kts
19-Sep-18 17:36 35.434631 -119.057176 312 508ft 52kts
19-Sep-18 17:37 35.436334 -119.057561 84 508ft 9kts
19-Sep-18 17:38 35.435712 -119.056223 137 508ft 1kts
19-Sep-18 17:39 35.435202 -119.055601 135 508ft 13kts
19-Sep-18 17:40 35.435261 -119.053717 29 508ft 13kts
19-Sep-18 17:41 35.435409 -119.053316 156 508ft 0kts

Navigation Log

Ident Type
Flight plan parsing failed, navigation log unavailable